Time;durP1;ratioP1;P1;durP2;ratioP2;P2;SDS_P1;SDS_P2;PMS_P1;PMS_P2;Temp;Humidity;BMP_temperature;BMP_pressure;BME280_temperature;BME280_humidity;BME280_pressure;Samples;Min_cycle;Max_cycle;Signal;HPM_P1;HPM_P2
2024/04/07 00:00:38;;;;;;;;;;;;;;;20.95;55.73;100822.09;2054933;28;6195;-73
2024/04/07 00:01:39;;;;;;;;;;;;;;;20.95;55.60;100822.09;2055864;28;1936;-74
2024/04/07 00:02:40;;;;;;;;;;;;;;;20.93;55.91;100814.09;2052621;28;2479;-74
2024/04/07 00:03:40;;;;;;;;;;;;;;;20.93;55.66;100817.72;2067220;28;1865;-74
2024/04/07 00:04:41;;;;;;;;;;;;;;;20.93;55.75;100820.59;2066195;28;2282;-73
2024/04/07 00:05:41;;;;;;;;;;;;;;;20.93;55.75;100820.59;2047962;28;1910;-74
2024/04/07 00:06:42;;;;;;;;;;;;;;;20.92;55.58;100822.00;2057268;28;1717;-74
2024/04/07 00:07:42;;;;;;;;;;;;;;;20.93;55.79;100820.59;2057831;28;1617;-74
2024/04/07 00:08:45;;;;;;;;;;;;;;;20.92;55.71;100827.75;2049645;28;2523;-74
2024/04/07 00:09:46;;;;;;;;;;;;;;;20.92;55.70;100819.13;2063663;28;1713;-74
2024/04/07 00:10:46;;;;;;;;;;;;;;;20.93;55.78;100817.72;2058430;28;2103;-74
2024/04/07 00:11:47;;;;;;;;;;;;;;;20.92;55.77;100819.13;2051523;28;1936;-74
2024/04/07 00:12:47;;;;;;;;;;;;;;;20.92;55.59;100824.88;2069359;28;1889;-74
2024/04/07 00:13:47;;;;;;;;;;;;;;;20.92;55.70;100824.88;2069483;28;1871;-74
2024/04/07 00:14:48;;;;;;;;;;;;;;;20.92;55.73;100830.63;2050767;28;2576;-74
2024/04/07 00:15:48;;;;;;;;;;;;;;;20.92;55.46;100824.13;2050411;28;1936;-73
2024/04/07 00:16:49;;;;;;;;;;;;;;;20.92;55.57;100821.25;2058791;28;1682;-74
2024/04/07 00:17:49;;;;;;;;;;;;;;;20.91;55.78;100823.41;2058588;28;2021;-74
2024/04/07 00:18:50;;;;;;;;;;;;;;;20.91;55.72;100817.63;2057408;28;1868;-74
2024/04/07 00:19:51;;;;;;;;;;;;;;;20.91;55.89;100829.16;2051800;28;1804;-74
2024/04/07 00:21:01;;;;;;;;;;;;;;;20.91;55.61;100826.28;2051969;28;2116;-73
2024/04/07 00:22:01;;;;;;;;;;;;;;;20.90;55.78;100824.78;2052220;28;2116;-73
2024/04/07 00:23:02;;;;;;;;;;;;;;;20.90;55.56;100824.03;2053864;28;1886;-73
2024/04/07 00:24:03;;;;;;;;;;;;;;;20.90;55.53;100827.66;2058916;28;1943;-67
2024/04/07 00:25:04;;;;;;;;;;;;;;;20.90;55.56;100827.66;2057207;28;2025;-69
2024/04/07 00:26:04;;;;;;;;;;;;;;;20.89;55.56;100826.19;2057329;28;1907;-68
2024/04/07 00:27:05;;;;;;;;;;;;;;;20.90;55.51;100821.91;2058828;28;1868;-73
2024/04/07 00:28:06;;;;;;;;;;;;;;;20.90;55.57;100824.03;2052949;28;1890;-73
2024/04/07 00:29:06;;;;;;;;;;;;;;;20.91;55.52;100822.63;2057209;28;2188;-73
2024/04/07 00:30:07;;;;;;;;;;;;;;;20.90;55.70;100824.78;2059599;28;6125;-73
2024/04/07 00:31:08;;;;;;;;;;;;;;;20.90;55.74;100816.13;2057876;28;2182;-73
2024/04/07 00:32:08;;;;;;;;;;;;;;;20.90;55.75;100818.28;2060294;28;2107;-73
2024/04/07 00:33:09;;;;;;;;;;;;;;;20.90;55.44;100816.13;2061549;28;1669;-73
2024/04/07 00:34:09;;;;;;;;;;;;;;;20.90;55.66;100810.38;2057378;28;1684;-73
2024/04/07 00:35:10;;;;;;;;;;;;;;;20.90;55.47;100809.66;2053636;28;2501;-74
2024/04/07 00:36:10;;;;;;;;;;;;;;;20.89;55.52;100814.69;2054856;28;1599;-73
2024/04/07 00:37:11;;;;;;;;;;;;;;;20.89;55.74;100814.69;2055013;28;2005;-73
2024/04/07 00:38:11;;;;;;;;;;;;;;;20.90;55.58;100807.50;2060519;28;1860;-73
2024/04/07 00:39:12;;;;;;;;;;;;;;;20.89;55.62;100819.66;2056856;28;2575;-73
2024/04/07 00:40:12;;;;;;;;;;;;;;;20.89;55.65;100808.91;2059448;28;2135;-73
2024/04/07 00:41:13;;;;;;;;;;;;;;;20.89;55.67;100806.03;2060282;28;2237;-73
2024/04/07 00:42:13;;;;;;;;;;;;;;;20.90;55.74;100809.66;2061046;28;1849;-73
2024/04/07 00:43:14;;;;;;;;;;;;;;;20.89;55.79;100805.28;2057531;28;1639;-73
2024/04/07 00:44:14;;;;;;;;;;;;;;;20.89;55.75;100811.03;2056690;28;1666;-73
2024/04/07 00:45:14;;;;;;;;;;;;;;;20.88;55.47;100806.69;2065236;28;2570;-73
2024/04/07 00:46:15;;;;;;;;;;;;;;;20.87;55.57;100805.94;2068412;28;2157;-73
2024/04/07 00:47:16;;;;;;;;;;;;;;;20.88;55.63;100812.44;2064360;28;2121;-73
2024/04/07 00:48:19;;;;;;;;;;;;;;;20.87;55.60;100805.94;2064379;28;1636;-73
2024/04/07 00:49:19;;;;;;;;;;;;;;;20.88;55.55;100812.44;2056846;28;2552;-73
2024/04/07 00:50:20;;;;;;;;;;;;;;;20.88;55.69;100800.94;2060541;28;2187;-73
2024/04/07 00:51:21;;;;;;;;;;;;;;;20.87;55.36;100805.94;2060599;28;2059;-73
2024/04/07 00:52:21;;;;;;;;;;;;;;;20.88;55.50;100801.66;2057204;28;2662;-73
2024/04/07 00:53:22;;;;;;;;;;;;;;;20.87;55.56;100799.47;2054735;28;1945;-73
2024/04/07 00:54:23;;;;;;;;;;;;;;;20.86;55.56;100804.44;2052532;28;2109;-73
2024/04/07 00:55:23;;;;;;;;;;;;;;;20.86;55.57;100804.44;2057203;28;2215;-73
2024/04/07 00:56:24;;;;;;;;;;;;;;;20.87;55.50;100800.19;2059524;28;1904;-73
2024/04/07 00:57:27;;;;;;;;;;;;;;;20.86;55.57;100798.69;2057065;28;1718;-73
2024/04/07 00:58:28;;;;;;;;;;;;;;;20.87;55.71;100811.69;2059259;28;1637;-73
2024/04/07 00:59:29;;;;;;;;;;;;;;;20.87;55.48;100805.22;2062915;28;2094;-73
2024/04/07 01:00:29;;;;;;;;;;;;;;;20.87;55.56;100805.94;2065661;28;6177;-73
2024/04/07 01:01:30;;;;;;;;;;;;;;;20.86;55.80;100801.56;2058435;28;1666;-73
2024/04/07 01:02:30;;;;;;;;;;;;;;;20.86;55.77;100806.59;2049404;28;2343;-73
2024/04/07 01:03:30;;;;;;;;;;;;;;;20.85;55.72;100802.25;2060779;28;2092;-73
2024/04/07 01:04:31;;;;;;;;;;;;;;;20.84;55.49;100801.47;2056930;28;1982;-74
2024/04/07 01:05:47;;;;;;;;;;;;;;;20.85;55.49;100797.22;2056812;28;2578;-74
2024/04/07 01:06:48;;;;;;;;;;;;;;;20.86;55.69;100804.44;2066845;28;2531;-73
2024/04/07 01:07:49;;;;;;;;;;;;;;;20.85;55.70;100800.09;2068148;28;1893;-73
2024/04/07 01:08:50;;;;;;;;;;;;;;;20.86;55.50;100797.97;2052591;28;2057;-73
2024/04/07 01:09:50;;;;;;;;;;;;;;;20.85;55.47;100797.22;2051474;28;2530;-73
2024/04/07 01:10:51;;;;;;;;;;;;;;;20.85;55.62;100785.72;2060645;28;2187;-73
2024/04/07 01:11:52;;;;;;;;;;;;;;;20.85;55.67;100794.34;2058409;28;1880;-73
2024/04/07 01:12:53;;;;;;;;;;;;;;;20.85;55.73;100797.22;2056481;28;1673;-73
2024/04/07 01:13:53;;;;;;;;;;;;;;;20.86;55.44;100792.94;2055956;28;1861;-73
2024/04/07 01:14:54;;;;;;;;;;;;;;;20.86;55.42;100787.19;2047952;28;2167;-73
2024/04/07 01:15:54;;;;;;;;;;;;;;;20.85;55.30;100791.47;2057010;28;2550;-73
2024/04/07 01:16:54;;;;;;;;;;;;;;;20.85;55.48;100791.47;2075075;28;1935;-73
2024/04/07 01:17:55;;;;;;;;;;;;;;;20.86;55.64;100778.53;2069838;28;1864;-73
2024/04/07 01:18:56;;;;;;;;;;;;;;;20.85;55.56;100794.34;2049133;28;2024;-74
2024/04/07 01:19:57;;;;;;;;;;;;;;;20.84;55.41;100792.84;2064690;28;2326;-73
2024/04/07 01:20:58;;;;;;;;;;;;;;;20.85;55.63;100797.22;2067826;28;2349;-73
2024/04/07 01:21:58;;;;;;;;;;;;;;;20.85;55.68;100790.72;2051802;28;1734;-73
2024/04/07 01:22:59;;;;;;;;;;;;;;;20.85;55.42;100791.47;2060341;28;2172;-73
2024/04/07 01:23:59;;;;;;;;;;;;;;;20.85;55.42;100791.47;2058404;28;2120;-73
2024/04/07 01:25:00;;;;;;;;;;;;;;;20.84;55.49;100789.97;2052756;28;2108;-73
2024/04/07 01:26:00;;;;;;;;;;;;;;;20.85;55.36;100790.72;2059102;28;2175;-73
2024/04/07 01:27:00;;;;;;;;;;;;;;;20.85;55.26;100790.72;2059579;28;1920;-73
2024/04/07 01:28:01;;;;;;;;;;;;;;;20.85;55.49;100790.72;2050386;28;2518;-73
2024/04/07 01:29:01;;;;;;;;;;;;;;;20.84;55.64;100792.84;2056353;28;1905;-73
2024/04/07 01:30:02;;;;;;;;;;;;;;;20.85;55.46;100784.97;2055140;28;6187;-72
2024/04/07 01:31:02;;;;;;;;;;;;;;;20.85;55.29;100791.47;2048640;28;2998;-73
2024/04/07 01:32:04;;;;;;;;;;;;;;;20.84;55.42;100777.72;2058455;28;1884;-73
2024/04/07 01:33:04;;;;;;;;;;;;;;;20.84;55.34;100777.72;2076435;28;1718;-73
2024/04/07 01:34:05;;;;;;;;;;;;;;;20.83;55.22;100771.22;2059169;28;1844;-73
2024/04/07 01:35:05;;;;;;;;;;;;;;;20.82;55.57;100769.75;2043484;28;2575;-73
2024/04/07 01:36:06;;;;;;;;;;;;;;;20.84;55.26;100774.84;2056084;28;2597;-73
2024/04/07 01:37:06;;;;;;;;;;;;;;;20.83;55.48;100776.97;2060605;28;1888;-73
2024/04/07 01:38:06;;;;;;;;;;;;;;;20.84;55.36;100777.72;2050536;28;2156;-74
2024/04/07 01:39:07;;;;;;;;;;;;;;;20.84;55.47;100772.69;2053553;28;2084;-73
2024/04/07 01:40:11;;;;;;;;;;;;;;;20.83;55.66;100776.97;2060412;28;1643;-73
2024/04/07 01:41:11;;;;;;;;;;;;;;;20.83;55.42;100770.50;2056258;28;2002;-73
2024/04/07 01:42:12;;;;;;;;;;;;;;;20.84;55.38;100771.97;2058723;28;2096;-73
2024/04/07 01:43:12;;;;;;;;;;;;;;;20.82;55.37;100769.00;2058941;28;2292;-73
2024/04/07 01:44:13;;;;;;;;;;;;;;;20.83;55.38;100765.47;2052800;28;2965;-73
2024/04/07 01:45:14;;;;;;;;;;;;;;;20.83;55.29;100761.84;2065346;28;2052;-74
2024/04/07 01:46:14;;;;;;;;;;;;;;;20.82;55.43;100758.25;2064595;28;2606;-73
2024/04/07 01:47:14;;;;;;;;;;;;;;;20.81;55.42;100753.88;2056766;28;1732;-73
2024/04/07 01:48:15;;;;;;;;;;;;;;;20.81;55.55;100756.75;2058570;28;2095;-73
2024/04/07 01:49:15;;;;;;;;;;;;;;;20.81;55.40;100756.75;2054020;28;2307;-74
2024/04/07 01:50:16;;;;;;;;;;;;;;;20.81;55.39;100751.00;2060711;28;2056;-73
2024/04/07 01:51:16;;;;;;;;;;;;;;;20.81;55.38;100751.00;2058289;28;2493;-73
2024/04/07 01:52:17;;;;;;;;;;;;;;;20.80;55.42;100743.78;2051194;28;1687;-73
2024/04/07 01:53:17;;;;;;;;;;;;;;;20.81;55.57;100739.47;2052970;28;2006;-73
2024/04/07 01:54:18;;;;;;;;;;;;;;;20.81;55.33;100747.38;2069056;28;2108;-73
2024/04/07 01:55:18;;;;;;;;;;;;;;;20.81;55.30;100750.25;2064419;28;1687;-73
2024/04/07 01:56:19;;;;;;;;;;;;;;;20.82;55.29;100751.72;2049691;28;2441;-73
2024/04/07 01:57:19;;;;;;;;;;;;;;;20.82;55.45;100752.50;2055703;28;1695;-72
2024/04/07 01:58:20;;;;;;;;;;;;;;;20.82;55.26;100745.97;2057527;28;1686;-73
2024/04/07 01:59:20;;;;;;;;;;;;;;;20.82;55.19;100748.84;2057513;28;2036;-73
2024/04/07 02:00:21;;;;;;;;;;;;;;;20.81;55.37;100745.25;2052104;28;6228;-73
2024/04/07 02:01:21;;;;;;;;;;;;;;;20.80;55.48;100749.53;2050916;28;2552;-73
2024/04/07 02:02:22;;;;;;;;;;;;;;;20.81;55.52;100742.34;2052221;28;1681;-73
2024/04/07 02:03:22;;;;;;;;;;;;;;;20.82;55.30;100748.84;2049946;28;2101;-73
2024/04/07 02:04:24;;;;;;;;;;;;;;;20.81;55.22;100753.13;2056702;28;2127;-73
2024/04/07 02:05:24;;;;;;;;;;;;;;;20.81;55.23;100756.75;2064290;28;1594;-73
2024/04/07 02:06:25;;;;;;;;;;;;;;;20.81;55.41;100756.00;2063325;28;2517;-73
2024/04/07 02:07:26;;;;;;;;;;;;;;;20.79;55.39;100753.78;2065892;28;2193;-73
2024/04/07 02:08:26;;;;;;;;;;;;;;;20.79;55.66;100748.03;2052437;28;2561;-73
2024/04/07 02:09:27;;;;;;;;;;;;;;;20.80;55.28;100745.88;2059208;28;2511;-73
2024/04/07 02:10:28;;;;;;;;;;;;;;;20.80;55.49;100749.53;2058998;28;1597;-73
2024/04/07 02:11:28;;;;;;;;;;;;;;;20.80;55.25;100743.00;2050650;28;2482;-73
2024/04/07 02:12:32;;;;;;;;;;;;;;;20.80;55.42;100740.88;2049217;28;2491;-73
2024/04/07 02:13:33;;;;;;;;;;;;;;;20.81;55.31;100739.47;2050849;28;2120;-73
2024/04/07 02:14:33;;;;;;;;;;;;;;;20.80;55.51;100735.13;2050285;28;2244;-73
2024/04/07 02:15:36;;;;;;;;;;;;;;;20.80;55.51;100743.00;2059602;28;1872;-73
2024/04/07 02:16:36;;;;;;;;;;;;;;;20.81;55.14;100735.88;2054108;28;2520;-73
2024/04/07 02:17:37;;;;;;;;;;;;;;;20.80;55.47;100735.13;2052708;28;2545;-73
2024/04/07 02:18:37;;;;;;;;;;;;;;;20.79;55.11;100733.63;2054237;28;1944;-73
2024/04/07 02:19:38;;;;;;;;;;;;;;;20.80;55.24;100731.50;2055393;28;1852;-73
2024/04/07 02:20:38;;;;;;;;;;;;;;;20.79;55.25;100727.16;2058430;28;2084;-73
2024/04/07 02:21:38;;;;;;;;;;;;;;;20.78;55.37;100723.53;2070032;28;1683;-73
2024/04/07 02:22:39;;;;;;;;;;;;;;;20.79;55.34;100735.78;2067991;28;1675;-73
2024/04/07 02:23:40;;;;;;;;;;;;;;;20.78;55.19;100735.03;2053972;28;1905;-73
2024/04/07 02:24:40;;;;;;;;;;;;;;;20.79;55.28;100739.38;2057114;28;2387;-73
2024/04/07 02:25:41;;;;;;;;;;;;;;;20.79;55.24;100730.03;2058216;28;1914;-73
2024/04/07 02:26:41;;;;;;;;;;;;;;;20.79;55.14;100730.75;2054884;28;2475;-73
2024/04/07 02:27:42;;;;;;;;;;;;;;;20.79;55.39;100730.75;2055684;28;2555;-73
2024/04/07 02:28:42;;;;;;;;;;;;;;;20.78;55.25;100726.41;2054546;28;2402;-73
2024/04/07 02:29:44;;;;;;;;;;;;;;;20.79;55.26;100730.03;2050681;28;2570;-73
2024/04/07 02:30:44;;;;;;;;;;;;;;;20.78;55.22;100726.41;2055845;28;7764;-73
2024/04/07 02:31:45;;;;;;;;;;;;;;;20.79;55.24;100725.00;2049496;28;2458;-73
2024/04/07 02:32:45;;;;;;;;;;;;;;;20.79;55.53;100724.28;2041734;28;1807;-73
2024/04/07 02:33:46;;;;;;;;;;;;;;;20.79;55.42;100713.50;2051829;28;2403;-73
2024/04/07 02:34:46;;;;;;;;;;;;;;;20.78;55.22;100726.41;2054557;28;2029;-73
2024/04/07 02:35:47;;;;;;;;;;;;;;;20.78;55.37;100723.53;2055445;28;1773;-73
2024/04/07 02:36:47;;;;;;;;;;;;;;;20.78;55.25;100723.53;2056540;28;2173;-73
2024/04/07 02:37:47;;;;;;;;;;;;;;;20.77;55.42;100721.31;2050884;28;2296;-73
2024/04/07 02:38:48;;;;;;;;;;;;;;;20.77;55.25;100727.78;2048705;28;1991;-73
2024/04/07 02:39:48;;;;;;;;;;;;;;;20.78;55.33;100729.28;2056334;28;2588;-73
2024/04/07 02:40:49;;;;;;;;;;;;;;;20.79;55.29;100727.16;2058220;28;2088;-73
2024/04/07 02:41:49;;;;;;;;;;;;;;;20.78;55.34;100722.81;2051466;28;1920;-73
2024/04/07 02:42:52;;;;;;;;;;;;;;;20.78;55.43;100729.28;2058717;28;1785;-73
2024/04/07 02:43:52;;;;;;;;;;;;;;;20.76;55.46;100723.44;2056084;28;1867;-73
2024/04/07 02:48:49;;;;;;;;;;;;;;;20.78;55.21;100726.41;2059824;28;2100;-73
2024/04/07 02:49:49;;;;;;;;;;;;;;;20.79;55.38;100727.16;2059955;28;2241;-74
2024/04/07 02:50:50;;;;;;;;;;;;;;;20.78;55.06;100729.28;2056810;28;1953;-74
2024/04/07 02:51:50;;;;;;;;;;;;;;;20.78;55.44;100723.53;2053418;28;1622;-73
2024/04/07 02:52:51;;;;;;;;;;;;;;;20.78;55.41;100732.16;2067312;28;2156;-73
2024/04/07 02:53:51;;;;;;;;;;;;;;;20.78;55.40;100728.56;2066695;28;2246;-73
2024/04/07 02:54:52;;;;;;;;;;;;;;;20.78;55.25;100729.28;2065996;28;1874;-73
2024/04/07 02:55:52;;;;;;;;;;;;;;;20.78;55.34;100714.91;2072436;28;1901;-73
2024/04/07 02:56:52;;;;;;;;;;;;;;;20.78;55.24;100720.66;2058670;28;2084;-73
2024/04/07 02:57:53;;;;;;;;;;;;;;;20.78;55.07;100722.81;2067619;28;1719;-73
2024/04/07 02:58:53;;;;;;;;;;;;;;;20.78;55.04;100722.81;2063540;28;1894;-72
2024/04/07 02:59:54;;;;;;;;;;;;;;;20.78;55.40;100729.28;2046518;28;2470;-73
2024/04/07 03:01:04;;;;;;;;;;;;;;;20.78;55.25;100722.81;2056702;28;6209;-73
2024/04/07 03:02:05;;;;;;;;;;;;;;;20.77;55.29;100727.78;2072370;28;2429;-73
2024/04/07 03:03:05;;;;;;;;;;;;;;;20.76;55.23;100723.44;2063321;28;2141;-73
2024/04/07 03:04:06;;;;;;;;;;;;;;;20.77;55.24;100727.78;2056348;28;2215;-73
2024/04/07 03:05:07;;;;;;;;;;;;;;;20.78;55.27;100722.81;2058086;28;2405;-73
2024/04/07 03:06:08;;;;;;;;;;;;;;;20.77;55.21;100721.31;2051659;28;2023;-73
2024/04/07 03:07:09;;;;;;;;;;;;;;;20.77;55.12;100718.44;2059850;28;1638;-73
2024/04/07 03:08:09;;;;;;;;;;;;;;;20.77;55.16;100715.53;2056605;28;2473;-73
2024/04/07 03:09:10;;;;;;;;;;;;;;;20.77;55.35;100716.28;2058714;28;2162;-73
2024/04/07 03:10:10;;;;;;;;;;;;;;;20.77;55.36;100713.41;2058633;28;1863;-73
2024/04/07 03:11:11;;;;;;;;;;;;;;;20.77;55.17;100716.28;2060652;28;1666;-73
2024/04/07 03:12:11;;;;;;;;;;;;;;;20.77;55.36;100715.53;2056352;28;2149;-73
2024/04/07 03:13:11;;;;;;;;;;;;;;;20.76;55.17;100709.06;2057284;28;2139;-73
2024/04/07 03:14:12;;;;;;;;;;;;;;;20.76;55.09;100714.81;2056745;28;1626;-73
2024/04/07 03:15:13;;;;;;;;;;;;;;;20.77;55.21;100718.44;2057852;28;2539;-73
2024/04/07 03:16:14;;;;;;;;;;;;;;;20.75;55.17;100719.06;2049162;28;2632;-73
2024/04/07 03:17:14;;;;;;;;;;;;;;;20.76;55.11;100725.59;2052483;28;2696;-73
2024/04/07 03:18:15;;;;;;;;;;;;;;;20.77;55.29;100718.44;2052824;28;2508;-73
2024/04/07 03:19:15;;;;;;;;;;;;;;;20.76;55.34;100720.56;2058280;28;2487;-73
2024/04/07 03:20:16;;;;;;;;;;;;;;;20.76;55.07;100720.56;2055879;28;2541;-73
2024/04/07 03:21:16;;;;;;;;;;;;;;;20.77;55.21;100727.06;2048508;28;2105;-73
2024/04/07 03:22:17;;;;;;;;;;;;;;;20.76;55.21;100726.31;2057050;28;2163;-73
2024/04/07 03:23:17;;;;;;;;;;;;;;;20.76;55.35;100728.47;2060550;28;1800;-73
2024/04/07 03:24:17;;;;;;;;;;;;;;;20.76;55.10;100734.97;2053001;28;1631;-73
2024/04/07 03:25:18;;;;;;;;;;;;;;;20.75;55.22;100724.81;2066164;28;2071;-73
2024/04/07 03:26:18;;;;;;;;;;;;;;;20.76;55.04;100732.06;2069789;28;1977;-73
2024/04/07 03:27:19;;;;;;;;;;;;;;;20.76;55.35;100734.22;2055014;28;2264;-73
2024/04/07 03:28:19;;;;;;;;;;;;;;;20.76;54.98;100728.47;2063234;28;1675;-73
2024/04/07 03:29:20;;;;;;;;;;;;;;;20.75;55.38;100724.81;2063864;28;2605;-73
2024/04/07 03:30:20;;;;;;;;;;;;;;;20.75;55.11;100736.34;2049989;28;6149;-73
2024/04/07 03:31:21;;;;;;;;;;;;;;;20.75;55.28;100736.34;2060476;28;1634;-73
2024/04/07 03:32:21;;;;;;;;;;;;;;;20.75;55.23;100733.47;2055854;28;2236;-73
2024/04/07 03:33:21;;;;;;;;;;;;;;;20.76;55.37;100737.09;2051226;28;2497;-73
2024/04/07 03:34:22;;;;;;;;;;;;;;;20.75;55.13;100733.47;2060073;28;1785;-73
2024/04/07 03:35:22;;;;;;;;;;;;;;;20.75;55.08;100730.56;2056768;28;2513;-74
2024/04/07 03:36:23;;;;;;;;;;;;;;;20.76;55.31;100728.47;2058049;28;2103;-73
2024/04/07 03:37:23;;;;;;;;;;;;;;;20.74;55.11;100732.00;2058869;28;2124;-73
2024/04/07 03:38:24;;;;;;;;;;;;;;;20.75;55.20;100736.34;2065519;28;1973;-73
2024/04/07 03:39:24;;;;;;;;;;;;;;;20.75;55.10;100735.59;2068461;28;2458;-73
2024/04/07 03:40:25;;;;;;;;;;;;;;;20.74;55.08;100729.13;2057556;28;1770;-73
2024/04/07 03:41:26;;;;;;;;;;;;;;;20.74;55.18;100723.34;2054667;28;2062;-73
2024/04/07 03:42:26;;;;;;;;;;;;;;;20.74;55.13;100726.22;2051237;28;2136;-73
2024/04/07 03:43:26;;;;;;;;;;;;;;;20.73;55.27;100716.13;2058275;28;2105;-73
2024/04/07 03:44:27;;;;;;;;;;;;;;;20.74;55.20;100717.59;2061213;28;2043;-73
2024/04/07 03:45:27;;;;;;;;;;;;;;;20.72;55.30;100720.38;2059440;28;1737;-73
2024/04/07 03:46:28;;;;;;;;;;;;;;;20.72;55.39;100720.38;2053051;28;1977;-73
2024/04/07 03:47:28;;;;;;;;;;;;;;;20.73;55.31;100724.75;2066885;28;2217;-73
2024/04/07 03:48:30;;;;;;;;;;;;;;;20.73;55.29;100724.00;2069093;28;2651;-73
2024/04/07 03:49:31;;;;;;;;;;;;;;;20.72;55.20;100717.50;2056404;28;2560;-73
2024/04/07 03:50:31;;;;;;;;;;;;;;;20.72;55.42;100723.25;2057041;28;1978;-73
2024/04/07 03:51:31;;;;;;;;;;;;;;;20.73;55.36;100721.13;2048891;28;2108;-73
2024/04/07 03:52:32;;;;;;;;;;;;;;;20.73;55.30;100718.25;2056316;28;2071;-74
2024/04/07 03:53:32;;;;;;;;;;;;;;;20.73;55.24;100719.00;2057913;28;2191;-72
2024/04/07 03:54:33;;;;;;;;;;;;;;;20.72;55.07;100717.50;2051263;28;2143;-73
2024/04/07 03:55:33;;;;;;;;;;;;;;;20.73;55.33;100716.13;2068568;28;2099;-73
2024/04/07 03:56:33;;;;;;;;;;;;;;;20.72;55.07;100711.75;2067144;28;2067;-73
2024/04/07 03:57:34;;;;;;;;;;;;;;;20.72;55.08;100711.75;2050596;28;1600;-73
2024/04/07 03:58:34;;;;;;;;;;;;;;;20.72;54.93;100708.88;2062022;28;1698;-73
2024/04/07 03:59:35;;;;;;;;;;;;;;;20.71;55.11;100718.91;2063243;28;2214;-73
2024/04/07 04:00:35;;;;;;;;;;;;;;;20.72;55.26;100717.50;2051446;28;6412;-73
2024/04/07 04:01:39;;;;;;;;;;;;;;;20.72;55.23;100714.63;2058356;28;2522;-73
2024/04/07 04:02:40;;;;;;;;;;;;;;;20.72;55.34;100714.63;2065119;28;2463;-73
2024/04/07 04:03:40;;;;;;;;;;;;;;;20.71;55.14;100707.41;2068758;28;1646;-73
2024/04/07 04:04:40;;;;;;;;;;;;;;;20.71;55.06;100708.16;2052771;28;1514;-73
2024/04/07 04:05:41;;;;;;;;;;;;;;;20.71;55.08;100707.41;2058913;28;2142;-73
2024/04/07 04:06:41;;;;;;;;;;;;;;;20.72;55.03;100703.13;2072580;28;1973;-73
2024/04/07 04:07:42;;;;;;;;;;;;;;;20.72;55.04;100700.25;2065111;28;1646;-73
2024/04/07 04:08:44;;;;;;;;;;;;;;;20.71;55.29;100698.78;2051697;28;1639;-73
2024/04/07 04:09:44;;;;;;;;;;;;;;;20.71;55.08;100708.16;2056355;28;2465;-73
2024/04/07 04:10:45;;;;;;;;;;;;;;;20.71;55.27;100708.16;2057570;28;1572;-73
2024/04/07 04:11:45;;;;;;;;;;;;;;;20.71;54.95;100707.41;2048283;28;1884;-73
2024/04/07 04:12:46;;;;;;;;;;;;;;;20.71;54.97;100707.41;2048760;28;1633;-73
2024/04/07 04:13:49;;;;;;;;;;;;;;;20.71;55.07;100707.41;2053554;28;1654;-73
2024/04/07 04:14:50;;;;;;;;;;;;;;;20.70;55.06;100700.88;2062074;28;1821;-73
2024/04/07 04:15:51;;;;;;;;;;;;;;;20.71;55.08;100708.16;2057259;28;2186;-73
2024/04/07 04:16:51;;;;;;;;;;;;;;;20.71;55.04;100698.78;2057755;28;2520;-74
2024/04/07 04:17:51;;;;;;;;;;;;;;;20.69;55.24;100699.44;2056437;28;1890;-72
2024/04/07 04:18:52;;;;;;;;;;;;;;;20.71;55.14;100693.75;2077049;28;2121;-73
2024/04/07 04:19:53;;;;;;;;;;;;;;;20.70;55.20;100694.41;2063769;28;1797;-73
2024/04/07 04:20:53;;;;;;;;;;;;;;;20.69;55.01;100698.69;2054510;28;1592;-73
2024/04/07 04:21:54;;;;;;;;;;;;;;;20.69;54.85;100699.44;2055796;28;2123;-73
2024/04/07 04:22:54;;;;;;;;;;;;;;;20.71;55.26;100701.66;2048335;28;2281;-73
2024/04/07 04:23:54;;;;;;;;;;;;;;;20.70;54.97;100694.41;2048176;28;1874;-73
2024/04/07 04:24:55;;;;;;;;;;;;;;;20.70;54.95;100694.41;2047957;28;1839;-73
2024/04/07 04:25:56;;;;;;;;;;;;;;;20.69;54.93;100687.19;2058040;28;1980;-74
2024/04/07 04:26:56;;;;;;;;;;;;;;;20.70;54.88;100688.66;2055864;28;2131;-73
2024/04/07 04:27:56;;;;;;;;;;;;;;;20.70;54.87;100688.66;2048753;28;1740;-73
2024/04/07 04:28:57;;;;;;;;;;;;;;;20.69;55.21;100681.44;2058163;28;2698;-73
2024/04/07 04:29:57;;;;;;;;;;;;;;;20.69;55.17;100681.44;2057695;28;2850;-73
2024/04/07 04:31:01;;;;;;;;;;;;;;;20.68;55.07;100686.44;2042154;28;6199;-73
2024/04/07 04:32:02;;;;;;;;;;;;;;;20.68;54.95;100677.06;2050594;28;2470;-73
2024/04/07 04:33:03;;;;;;;;;;;;;;;20.68;55.18;100682.81;2043188;28;1852;-73
2024/04/07 04:34:03;;;;;;;;;;;;;;;20.68;54.93;100679.94;2042248;28;1797;-73
2024/04/07 04:35:05;;;;;;;;;;;;;;;20.68;55.10;100674.19;2045744;28;2185;-73
2024/04/07 04:36:15;;;;;;;;;;;;;;;20.67;54.98;100678.47;2048851;28;1589;-73
2024/04/07 04:37:16;;;;;;;;;;;;;;;20.67;55.00;100684.94;2048292;28;1610;-73
2024/04/07 04:38:16;;;;;;;;;;;;;;;20.68;55.08;100680.69;2040726;28;1802;-73
2024/04/07 04:39:17;;;;;;;;;;;;;;;20.67;55.00;100678.47;2050509;28;2128;-73
2024/04/07 04:40:17;;;;;;;;;;;;;;;20.67;54.99;100682.06;2040157;29;1872;-73
2024/04/07 04:41:18;;;;;;;;;;;;;;;20.68;55.18;100688.56;2041693;29;2104;-73
2024/04/07 04:42:18;;;;;;;;;;;;;;;20.68;54.95;100679.94;2041466;28;2463;-73
2024/04/07 04:43:19;;;;;;;;;;;;;;;20.67;55.16;100682.06;2038980;29;1818;-73
2024/04/07 04:44:19;;;;;;;;;;;;;;;20.66;54.96;100680.59;2042370;28;2254;-73
2024/04/07 04:45:20;;;;;;;;;;;;;;;20.66;54.96;100677.72;2040252;29;1851;-73
2024/04/07 04:46:20;;;;;;;;;;;;;;;20.67;54.94;100678.47;2036753;29;2146;-74
2024/04/07 04:47:20;;;;;;;;;;;;;;;20.67;54.93;100684.22;2043853;28;2633;-73
2024/04/07 04:48:21;;;;;;;;;;;;;;;20.66;54.95;100676.97;2043367;28;2114;-73
2024/04/07 04:49:21;;;;;;;;;;;;;;;20.66;55.18;100680.59;2039224;29;1603;-73
2024/04/07 04:50:22;;;;;;;;;;;;;;;20.66;54.97;100676.97;2038638;29;2087;-73
2024/04/07 04:51:22;;;;;;;;;;;;;;;20.66;55.17;100677.72;2036509;29;2171;-73
2024/04/07 04:52:22;;;;;;;;;;;;;;;20.67;54.98;100678.47;2043890;28;2589;-73
2024/04/07 04:53:23;;;;;;;;;;;;;;;20.66;54.94;100682.72;2045222;28;1694;-73
2024/04/07 04:54:23;;;;;;;;;;;;;;;20.66;55.02;100679.84;2037550;29;1817;-73
2024/04/07 04:55:24;;;;;;;;;;;;;;;20.66;54.97;100677.72;2045169;28;2122;-73
2024/04/07 04:56:24;;;;;;;;;;;;;;;20.66;55.05;100676.97;2044696;28;2462;-73
2024/04/07 04:57:24;;;;;;;;;;;;;;;20.65;54.92;100687.00;2033962;29;2446;-73
2024/04/07 04:58:25;;;;;;;;;;;;;;;20.66;54.91;100674.09;2044596;28;2005;-73
2024/04/07 04:59:25;;;;;;;;;;;;;;;20.66;55.13;100677.72;2044526;28;2192;-73
2024/04/07 05:00:26;;;;;;;;;;;;;;;20.65;55.18;100676.22;2041658;28;6293;-73
2024/04/07 05:01:27;;;;;;;;;;;;;;;20.66;55.09;100679.84;2036731;29;2095;-73
2024/04/07 05:02:28;;;;;;;;;;;;;;;20.64;54.94;100677.63;2047431;28;2534;-73
2024/04/07 05:03:28;;;;;;;;;;;;;;;20.64;54.81;100671.88;2049121;28;1611;-73
2024/04/07 05:04:29;;;;;;;;;;;;;;;20.65;55.10;100675.50;2034731;29;2270;-73
2024/04/07 05:05:29;;;;;;;;;;;;;;;20.65;54.86;100669.75;2035486;29;2214;-73
2024/04/07 05:06:30;;;;;;;;;;;;;;;20.64;54.98;100671.88;2044587;28;1979;-73
2024/04/07 05:07:30;;;;;;;;;;;;;;;20.64;54.90;100668.28;2046279;28;1638;-73
2024/04/07 05:08:30;;;;;;;;;;;;;;;20.64;55.13;100669.00;2033397;29;1603;-73
2024/04/07 05:09:31;;;;;;;;;;;;;;;20.65;55.02;100666.88;2033619;29;2067;-73
2024/04/07 05:10:31;;;;;;;;;;;;;;;20.65;55.04;100669.75;2049181;28;1694;-73
2024/04/07 05:11:31;;;;;;;;;;;;;;;20.64;54.90;100668.28;2051316;28;2037;-72
2024/04/07 05:12:32;;;;;;;;;;;;;;;20.64;54.93;100662.50;2038588;29;2594;-73
2024/04/07 05:13:33;;;;;;;;;;;;;;;20.65;54.84;100672.63;2041701;28;1951;-73
2024/04/07 05:14:33;;;;;;;;;;;;;;;20.64;54.79;100668.28;2045989;28;1600;-73
2024/04/07 05:15:33;;;;;;;;;;;;;;;20.64;54.79;100674.03;2037175;29;2052;-73
2024/04/07 05:16:34;;;;;;;;;;;;;;;20.64;54.88;100679.78;2043805;28;2150;-73
2024/04/07 05:17:34;;;;;;;;;;;;;;;20.63;55.03;100672.53;2041442;28;2515;-73
2024/04/07 05:18:35;;;;;;;;;;;;;;;20.64;54.99;100679.78;2039421;29;1647;-73
2024/04/07 05:19:35;;;;;;;;;;;;;;;20.62;55.06;100671.78;2044387;28;1660;-73
2024/04/07 05:20:36;;;;;;;;;;;;;;;20.63;55.10;100675.41;2041078;28;2086;-73